createdAt,value
2022-10-11T00:00:31.086Z,98843.95
2022-10-11T00:06:08.010Z,98845.32
2022-10-11T00:11:30.332Z,98845.16
2022-10-11T00:16:52.157Z,98849.46
2022-10-11T00:22:13.685Z,98844.29
2022-10-11T00:27:35.662Z,98843.60
2022-10-11T00:32:58.729Z,98846.02
2022-10-11T00:38:20.681Z,98846.55
2022-10-11T00:43:43.170Z,98840.17
2022-10-11T00:49:11.858Z,98845.69
2022-10-11T00:54:37.248Z,98841.02
2022-10-11T00:59:59.034Z,98841.00
2022-10-11T01:05:29.997Z,98843.76
2022-10-11T01:10:52.199Z,98843.58
2022-10-11T01:16:26.499Z,98849.27
2022-10-11T01:21:57.559Z,98851.48
2022-10-11T01:27:44.560Z,98853.38
2022-10-11T01:33:30.390Z,98852.20
2022-10-11T01:39:09.682Z,98847.95
2022-10-11T01:44:34.479Z,98848.39
2022-10-11T01:50:00.265Z,98853.42
2022-10-11T01:55:31.037Z,98850.50
2022-10-11T02:00:58.833Z,98852.39
2022-10-11T02:06:41.373Z,98850.13
2022-10-11T02:12:06.920Z,98853.90
2022-10-11T02:17:32.393Z,98852.48
2022-10-11T02:23:00.071Z,98850.39
2022-10-11T02:28:25.354Z,98851.76
2022-10-11T02:33:53.819Z,98854.16
2022-10-11T02:39:25.161Z,98854.82
2022-10-11T02:44:53.759Z,98859.64
2022-10-11T02:50:16.076Z,98862.70
2022-10-11T02:55:37.772Z,98863.54
2022-10-11T03:00:59.873Z,98869.21
2022-10-11T03:06:21.779Z,98872.27
2022-10-11T03:11:43.709Z,98881.04
2022-10-11T03:17:31.144Z,98883.61
2022-10-11T03:22:47.213Z,98892.47
2022-10-11T03:28:09.311Z,98894.28
2022-10-11T03:33:31.451Z,98896.93
2022-10-11T03:38:53.177Z,98907.33
2022-10-11T03:44:14.806Z,98912.86
2022-10-11T03:49:39.995Z,98915.27
2022-10-11T03:55:05.789Z,98919.41
2022-10-11T04:00:27.621Z,98918.72
2022-10-11T04:05:49.748Z,98915.98
2022-10-11T04:11:11.677Z,98920.11
2022-10-11T04:16:33.237Z,98915.40
2022-10-11T04:21:55.028Z,98917.38
2022-10-11T04:27:16.564Z,98925.86
2022-10-11T04:32:38.027Z,98924.97
2022-10-11T04:38:00.050Z,98923.24
2022-10-11T04:43:21.899Z,98926.83
2022-10-11T04:48:43.376Z,98928.38
2022-10-11T04:54:05.525Z,98938.26
2022-10-11T04:59:27.336Z,98939.81
2022-10-11T05:04:48.894Z,98940.37
2022-10-11T05:10:10.754Z,98951.73
2022-10-11T05:15:32.563Z,98956.73
2022-10-11T05:21:07.845Z,98962.92
2022-10-11T05:26:29.949Z,98974.83
2022-10-11T05:31:51.485Z,98984.11
2022-10-11T05:37:13.081Z,99000.26
2022-10-11T05:42:34.914Z,99001.30
2022-10-11T05:47:56.339Z,99006.35
2022-10-11T05:53:17.969Z,99014.14
2022-10-11T05:58:39.797Z,99018.77
2022-10-11T06:04:02.704Z,99020.83
2022-10-11T06:09:24.304Z,99026.55
2022-10-11T06:14:45.980Z,99033.99
2022-10-11T06:20:08.536Z,99039.88
2022-10-11T06:25:30.200Z,99046.61
2022-10-11T06:30:51.673Z,99052.86
2022-10-11T06:36:15.008Z,99052.57
2022-10-11T06:41:36.642Z,99064.19
2022-10-11T06:46:58.172Z,99082.38
2022-10-11T06:52:20.188Z,99087.98
2022-10-11T06:57:41.757Z,99099.69
2022-10-11T07:03:03.636Z,99101.79
2022-10-11T07:08:25.517Z,99100.41
2022-10-11T07:13:52.522Z,99109.84
2022-10-11T07:19:14.356Z,99118.55
2022-10-11T07:24:36.179Z,99119.03
2022-10-11T07:29:57.490Z,99126.88
2022-10-11T07:35:19.433Z,99131.45
2022-10-11T07:40:43.099Z,99136.02
2022-10-11T07:46:05.871Z,99147.66
2022-10-11T07:51:27.772Z,99159.36
2022-10-11T07:56:49.359Z,99160.88
2022-10-11T08:02:14.250Z,99173.04
2022-10-11T08:07:36.706Z,99177.96
2022-10-11T08:13:04.467Z,99180.85
2022-10-11T08:18:26.357Z,99184.19
2022-10-11T08:23:48.268Z,99190.83
2022-10-11T08:29:10.046Z,99192.55
2022-10-11T08:34:31.948Z,99197.23
2022-10-11T08:39:53.266Z,99209.34
2022-10-11T08:45:25.095Z,99216.08
2022-10-11T08:50:49.730Z,99220.92
2022-10-11T08:56:15.332Z,99223.94
2022-10-11T09:01:41.090Z,99224.98
2022-10-11T09:07:05.778Z,99222.16
2022-10-11T09:12:47.561Z,99222.63
2022-10-11T09:18:41.170Z,99228.79
2022-10-11T09:24:15.212Z,99235.80
2022-10-11T09:29:51.709Z,99233.95
2022-10-11T09:35:17.699Z,99238.00
2022-10-11T09:40:51.926Z,99244.84
2022-10-11T09:46:21.530Z,99247.90
2022-10-11T09:51:47.521Z,99242.57
2022-10-11T09:57:24.670Z,99246.56
2022-10-11T10:02:49.493Z,99248.79
2022-10-11T10:08:11.481Z,99256.02
2022-10-11T10:13:43.753Z,99256.29
2022-10-11T10:19:08.642Z,99260.20
2022-10-11T10:24:37.922Z,99260.35
2022-10-11T10:30:08.923Z,99264.16
2022-10-11T10:35:39.423Z,99268.21
2022-10-11T10:41:06.923Z,99269.46
2022-10-11T10:46:46.689Z,99268.33
2022-10-11T10:52:46.604Z,99270.28
2022-10-11T10:58:34.911Z,99274.45
2022-10-11T11:04:08.076Z,99276.85
2022-10-11T11:09:35.450Z,99273.13
2022-10-11T11:15:08.750Z,99267.22
2022-10-11T11:21:04.136Z,99272.67
2022-10-11T11:26:47.127Z,99276.13
2022-10-11T11:32:12.894Z,99271.95
2022-10-11T11:37:37.791Z,99269.85
2022-10-11T11:43:03.312Z,99269.52
2022-10-11T11:48:26.588Z,99265.86
2022-10-11T11:54:22.399Z,99267.31
2022-10-11T11:59:53.188Z,99266.70
2022-10-11T12:05:18.382Z,99260.73
2022-10-11T12:10:49.214Z,99256.28
2022-10-11T12:16:13.624Z,99254.92
2022-10-11T12:21:41.168Z,99254.59
2022-10-11T12:27:36.820Z,99255.12
2022-10-11T12:33:21.682Z,99249.61
2022-10-11T12:38:43.820Z,99251.38
2022-10-11T12:44:26.393Z,99251.56
2022-10-11T12:49:59.446Z,99247.21
2022-10-11T12:55:34.165Z,99248.61
2022-10-11T13:00:56.386Z,99249.48
2022-10-11T13:06:19.674Z,99250.52
2022-10-11T13:12:02.538Z,99248.79
2022-10-11T13:17:37.304Z,99254.66
2022-10-11T13:23:00.485Z,99257.61
2022-10-11T13:28:22.815Z,99251.37
2022-10-11T13:33:45.392Z,99255.88
2022-10-11T13:39:08.060Z,99251.35
2022-10-11T13:44:32.643Z,99257.56
2022-10-11T13:50:34.632Z,99258.59
2022-10-11T13:56:04.561Z,99261.37
2022-10-11T14:01:28.465Z,99266.19
2022-10-11T14:07:02.487Z,99269.46
2022-10-11T14:12:33.847Z,99268.59
2022-10-11T14:17:55.580Z,99269.08
2022-10-11T14:23:17.006Z,99274.95
2022-10-11T14:28:39.065Z,99278.38
2022-10-11T14:34:01.267Z,99273.49
2022-10-11T14:39:24.958Z,99272.78
2022-10-11T14:44:46.535Z,99279.33
2022-10-11T14:50:30.445Z,99284.61
2022-10-11T14:55:52.569Z,99283.49
2022-10-11T15:01:16.253Z,99280.17
2022-10-11T15:06:40.139Z,99286.02
2022-10-11T15:12:01.867Z,99291.65
2022-10-11T15:17:23.502Z,99292.27
2022-10-11T15:22:45.162Z,99289.89
2022-10-11T15:28:07.864Z,99295.66
2022-10-11T15:33:29.685Z,99295.55
2022-10-11T15:38:51.715Z,99301.14
2022-10-11T15:44:13.380Z,99308.29
2022-10-11T15:49:35.573Z,99319.22
2022-10-11T15:54:57.513Z,99324.59
2022-10-11T16:00:22.269Z,99327.34
2022-10-11T16:05:44.414Z,99332.75
2022-10-11T16:11:07.478Z,99339.34
2022-10-11T16:16:29.193Z,99344.55
2022-10-11T16:21:50.664Z,99349.61
2022-10-11T16:27:16.436Z,99350.10
2022-10-11T16:32:40.959Z,99357.73
2022-10-11T16:38:02.681Z,99365.39
2022-10-11T16:43:24.402Z,99379.15
2022-10-11T16:48:46.106Z,99374.20
2022-10-11T16:54:08.158Z,99377.52
2022-10-11T16:59:29.927Z,99379.95
2022-10-11T17:04:54.124Z,99381.82
2022-10-11T17:10:16.234Z,99388.16
2022-10-11T17:15:39.791Z,99389.72
2022-10-11T17:21:08.086Z,99395.94
2022-10-11T17:26:29.616Z,99397.88
2022-10-11T17:31:51.606Z,99397.23
2022-10-11T17:37:13.226Z,99400.64
2022-10-11T17:42:34.766Z,99402.85
2022-10-11T17:47:56.683Z,99402.21
2022-10-11T17:53:18.716Z,99404.09
2022-10-11T17:58:40.833Z,99405.10
2022-10-11T18:04:04.622Z,99408.17
2022-10-11T18:09:27.271Z,99407.49
2022-10-11T18:14:48.938Z,99407.52
2022-10-11T18:20:13.778Z,99410.50
2022-10-11T18:25:37.928Z,99409.11
2022-10-11T18:31:00.672Z,99410.23
2022-10-11T18:36:28.539Z,99408.49
2022-10-11T18:41:49.926Z,99404.48
2022-10-11T18:47:11.823Z,99401.41
2022-10-11T18:52:33.583Z,99399.94
2022-10-11T18:57:55.321Z,99405.27
2022-10-11T19:03:17.359Z,99407.35
2022-10-11T19:08:38.971Z,99407.23
2022-10-11T19:14:08.917Z,99409.84
2022-10-11T19:19:31.107Z,99412.80
2022-10-11T19:24:52.923Z,99415.51
2022-10-11T19:30:14.865Z,99420.48
2022-10-11T19:35:36.467Z,99422.86
2022-10-11T19:41:00.120Z,99429.48
2022-10-11T19:52:03.994Z,99434.98
2022-10-11T19:57:26.071Z,99439.73
2022-10-11T20:02:48.971Z,99440.27
2022-10-11T20:08:10.574Z,99441.02
2022-10-11T20:13:34.987Z,99443.48
2022-10-11T20:19:00.922Z,99441.39
2022-10-11T20:24:22.565Z,99440.73
2022-10-11T20:29:44.431Z,99439.23
2022-10-11T20:35:06.360Z,99440.16
2022-10-11T20:40:28.147Z,99443.78
2022-10-11T20:46:10.562Z,99446.48
2022-10-11T20:51:34.217Z,99442.63
2022-10-11T20:56:57.513Z,99446.79
2022-10-11T21:02:19.395Z,99447.60
2022-10-11T21:07:41.060Z,99445.27
2022-10-11T21:13:03.050Z,99441.70
2022-10-11T21:18:25.481Z,99446.38
2022-10-11T21:23:46.950Z,99448.59
2022-10-11T21:29:08.818Z,99447.73
2022-10-11T21:34:30.569Z,99446.81
2022-10-11T21:39:52.159Z,99451.13
2022-10-11T21:45:13.751Z,99451.94
2022-10-11T21:50:35.359Z,99450.95
2022-10-11T21:56:01.203Z,99454.98
2022-10-11T22:01:23.607Z,99459.41
2022-10-11T22:06:45.573Z,99457.92
2022-10-11T22:12:07.686Z,99453.02
2022-10-11T22:17:29.468Z,99451.16
2022-10-11T22:22:50.930Z,99451.38
2022-10-11T22:28:12.826Z,99452.63
2022-10-11T22:33:35.087Z,99450.58
2022-10-11T22:38:56.817Z,99452.76
2022-10-11T22:44:18.538Z,99454.16
2022-10-11T22:49:39.788Z,99456.58
2022-10-11T22:55:01.768Z,99457.78
2022-10-11T23:00:23.384Z,99453.05
2022-10-11T23:05:54.534Z,99457.15
2022-10-11T23:11:16.737Z,99454.00
2022-10-11T23:16:38.272Z,99454.76
2022-10-11T23:22:00.247Z,99452.62
2022-10-11T23:27:21.925Z,99457.58
2022-10-11T23:32:43.852Z,99457.27
2022-10-11T23:38:05.479Z,99454.95
2022-10-11T23:43:27.176Z,99460.87
2022-10-11T23:48:48.930Z,99463.24
2022-10-11T23:54:10.548Z,99467.17
2022-10-11T23:59:32.395Z,99467.40
